Time;durP1;ratioP1;P1;durP2;ratioP2;P2;SDS_P1;SDS_P2;PMS_P1;PMS_P2;Temp;Humidity;BMP_temperature;BMP_pressure;BME280_temperature;BME280_humidity;BME280_pressure;Samples;Min_cycle;Max_cycle;Signal;HPM_P1;HPM_P2
2021/06/06 00:02:10;;;;;;;22.20;16.88;;;;;;;14.90;84.58;101953.38;5003161;28;20066;-67
2021/06/06 00:04:43;;;;;;;25.77;17.60;;;;;;;14.86;84.49;101947.31;5003107;28;20053;-66
2021/06/06 00:07:09;;;;;;;22.85;17.33;;;;;;;14.88;84.39;101952.53;5000030;28;20404;-67
2021/06/06 00:09:35;;;;;;;24.15;17.15;;;;;;;14.89;84.73;101959.50;5003394;28;20045;-67
2021/06/06 00:12:02;;;;;;;26.35;17.98;;;;;;;14.90;84.70;101954.25;5006806;28;20420;-67
2021/06/06 00:14:30;;;;;;;23.48;17.13;;;;;;;15.00;84.64;101956.69;5003866;28;20050;-69
2021/06/06 00:16:59;;;;;;;27.35;17.60;;;;;;;14.97;84.58;101952.38;5013947;28;20050;-67
2021/06/06 00:19:26;;;;;;;27.65;16.98;;;;;;;14.97;84.39;101957.63;4999127;28;20050;-68
2021/06/06 00:21:55;;;;;;;27.05;17.95;;;;;;;14.86;84.96;101963.03;5008112;28;20077;-67
2021/06/06 00:24:24;;;;;;;26.85;17.58;;;;;;;14.86;85.09;101959.56;5017050;28;20578;-67
2021/06/06 00:26:51;;;;;;;24.45;17.17;;;;;;;14.83;85.13;101965.69;4999486;28;20054;-67
2021/06/06 00:29:17;;;;;;;24.73;16.73;;;;;;;14.90;85.17;101962.09;5004229;28;20445;-67
2021/06/06 00:31:43;;;;;;;24.45;17.50;;;;;;;14.89;85.26;101960.38;4998103;28;20046;-67
2021/06/06 00:34:09;;;;;;;25.73;17.05;;;;;;;14.92;85.39;101965.53;4997728;28;20070;-68
2021/06/06 00:36:35;;;;;;;25.55;16.75;;;;;;;14.96;85.00;101970.72;5005349;28;20048;-67
2021/06/06 00:39:04;;;;;;;22.98;16.88;;;;;;;14.89;85.75;101968.22;5007820;28;20045;-67
2021/06/06 00:41:31;;;;;;;25.60;17.48;;;;;;;14.89;85.73;101969.97;5010846;28;20053;-67
2021/06/06 00:43:58;;;;;;;23.02;15.80;;;;;;;14.87;85.95;101966.53;5002344;28;20053;-67
2021/06/06 00:46:27;;;;;;;27.73;17.27;;;;;;;14.91;86.08;101979.56;5007335;28;20057;-68
2021/06/06 00:48:54;;;;;;;27.90;17.98;;;;;;;14.92;85.68;101976.00;5000706;28;20046;-67
2021/06/06 00:51:25;;;;;;;29.60;18.35;;;;;;;14.82;85.79;101974.47;5003706;28;20054;-67
2021/06/06 00:53:54;;;;;;;30.08;18.38;;;;;;;14.79;86.10;101978.88;5004569;28;20046;-67
2021/06/06 00:56:26;;;;;;;27.38;18.23;;;;;;;14.78;86.07;101970.16;5008638;28;20054;-66
2021/06/06 00:58:56;;;;;;;30.23;18.45;;;;;;;14.75;86.14;101971.09;4997758;28;20088;-67
2021/06/06 01:01:23;;;;;;;31.88;18.08;;;;;;;14.60;86.93;101969.56;4997514;28;20057;-66
2021/06/06 01:03:51;;;;;;;32.53;19.92;;;;;;;14.62;87.27;101972.16;5005433;28;20590;-67
2021/06/06 01:06:24;;;;;;;33.03;18.48;;;;;;;14.65;87.50;101960.75;5002631;28;20050;-66
2021/06/06 01:08:50;;;;;;;37.08;19.73;;;;;;;14.74;87.16;101964.13;5008549;28;20046;-66
2021/06/06 01:11:22;;;;;;;31.55;20.08;;;;;;;14.70;87.26;101965.06;5002351;28;20124;-66
2021/06/06 01:13:55;;;;;;;27.27;18.65;;;;;;;14.71;87.43;101965.94;5005437;28;20450;-66
2021/06/06 01:16:30;;;;;;;31.98;20.77;;;;;;;14.66;87.57;101967.72;4996944;28;20094;-66
2021/06/06 01:18:59;;;;;;;34.95;21.52;;;;;;;14.71;87.35;101974.66;5004974;28;20390;-66
2021/06/06 01:21:41;;;;;;;28.52;18.83;;;;;;;14.73;87.52;101978.09;5005696;28;20525;-66
2021/06/06 01:24:17;;;;;;;33.72;20.55;;;;;;;14.73;87.12;101971.97;4992482;28;20046;-65
2021/06/06 01:26:46;;;;;;;28.77;19.75;;;;;;;14.71;87.38;101972.03;5003870;28;20463;-66
2021/06/06 01:29:24;;;;;;;33.67;19.48;;;;;;;14.67;87.47;101970.38;4995983;28;20050;-66
2021/06/06 01:31:55;;;;;;;30.60;19.83;;;;;;;14.64;88.36;101966.88;5000247;28;20058;-66
2021/06/06 01:34:25;;;;;;;31.58;19.85;;;;;;;14.62;87.72;101962.53;5001170;28;20050;-66
2021/06/06 01:36:55;;;;;;;30.10;20.70;;;;;;;14.57;88.25;101959.13;5012808;28;20057;-66
2021/06/06 01:39:25;;;;;;;32.95;19.15;;;;;;;14.59;87.72;101962.59;5001780;28;20038;-66
2021/06/06 01:41:55;;;;;;;33.53;20.02;;;;;;;14.56;88.34;101967.88;4995917;28;20074;-66
2021/06/06 01:44:26;;;;;;;34.10;19.70;;;;;;;14.59;88.18;101965.22;5008721;28;20065;-65
2021/06/06 01:46:55;;;;;;;29.75;21.10;;;;;;;14.57;88.08;101961.75;5011522;28;20113;-66
2021/06/06 01:49:23;;;;;;;36.30;21.13;;;;;;;14.52;88.40;101960.97;5001778;28;20054;-66
2021/06/06 01:51:52;;;;;;;31.20;19.40;;;;;;;14.50;88.51;101960.13;4999550;28;20096;-66
2021/06/06 01:54:20;;;;;;;31.63;20.60;;;;;;;14.48;88.80;101968.88;5004153;28;20131;-65
2021/06/06 01:56:50;;;;;;;31.83;20.80;;;;;;;14.50;88.51;101970.59;4997208;28;20050;-66
2021/06/06 01:59:21;;;;;;;32.65;21.17;;;;;;;14.46;89.26;101971.53;5001721;28;20050;-66
2021/06/06 02:01:47;;;;;;;32.88;21.17;;;;;;;14.51;89.00;101969.72;5003094;28;20060;-66
2021/06/06 02:04:14;;;;;;;30.10;19.85;;;;;;;14.54;88.66;101972.25;5007187;28;20050;-67
2021/06/06 02:06:44;;;;;;;30.48;20.35;;;;;;;14.54;89.14;101972.25;5012959;28;20123;-66
2021/06/06 02:09:17;;;;;;;32.28;20.35;;;;;;;14.54;89.19;101966.16;4999207;28;20038;-67
2021/06/06 02:11:46;;;;;;;35.60;21.63;;;;;;;14.55;89.38;101967.91;5022999;28;20046;-68
2021/06/06 02:14:18;;;;;;;30.63;21.38;;;;;;;14.61;88.75;101975.66;5002395;28;20420;-67
2021/06/06 02:16:48;;;;;;;26.48;19.83;;;;;;;14.65;88.33;101966.88;5005624;28;20073;-66
2021/06/06 02:19:14;;;;;;;30.20;20.42;;;;;;;14.68;87.76;101968.59;5017372;28;20054;-66
2021/06/06 02:21:40;;;;;;;33.70;21.77;;;;;;;14.68;87.70;101960.75;5001608;28;20050;-66
2021/06/06 02:24:07;;;;;;;33.42;22.15;;;;;;;14.55;87.68;101963.53;5007239;28;20045;-67
2021/06/06 02:26:38;;;;;;;29.13;20.67;;;;;;;14.50;88.30;101970.59;5003936;28;21799;-64
2021/06/06 02:29:08;;;;;;;35.22;22.42;;;;;;;14.46;88.67;101967.16;4995948;28;20065;-66
2021/06/06 02:31:39;;;;;;;34.20;22.35;;;;;;;14.46;89.24;101971.53;5001582;28;20050;-66
2021/06/06 02:34:11;;;;;;;35.85;22.38;;;;;;;14.41;89.35;101973.34;4999187;28;20049;-66
2021/06/06 02:36:42;;;;;;;30.83;22.05;;;;;;;14.41;89.26;101974.22;5009351;28;20052;-67
2021/06/06 02:39:12;;;;;;;33.17;23.50;;;;;;;14.37;89.19;101972.53;5017690;28;20388;-67
2021/06/06 02:41:43;;;;;;;36.53;23.65;;;;;;;14.41;89.23;101971.59;5005946;28;20546;-67
2021/06/06 02:44:15;;;;;;;33.47;22.63;;;;;;;14.36;89.60;101964.69;5012547;28;20041;-67
2021/06/06 02:46:45;;;;;;;38.25;24.75;;;;;;;14.39;89.72;101965.50;5002055;28;20064;-66
2021/06/06 02:49:15;;;;;;;35.10;24.10;;;;;;;14.36;89.77;101960.34;4998020;28;20057;-66
2021/06/06 02:51:46;;;;;;;33.33;23.38;;;;;;;14.41;89.82;101965.50;5019386;28;20049;-66
2021/06/06 02:54:16;;;;;;;31.45;22.77;;;;;;;14.41;89.38;101968.13;5007591;28;20057;-66
2021/06/06 02:56:45;;;;;;;38.83;22.98;;;;;;;14.42;89.11;101969.84;5006931;28;20145;-67
2021/06/06 02:59:15;;;;;;;39.50;26.20;;;;;;;14.38;89.30;101962.94;4999825;28;20058;-68
2021/06/06 03:01:46;;;;;;;37.17;25.67;;;;;;;14.30;89.88;101966.53;4996921;28;20073;-67
2021/06/06 03:04:15;;;;;;;33.95;24.77;;;;;;;14.30;89.70;101966.53;5001070;28;20046;-66
2021/06/06 03:06:43;;;;;;;37.65;24.55;;;;;;;14.35;89.78;101970.81;5020602;28;20046;-66
2021/06/06 03:09:11;;;;;;;35.65;25.02;;;;;;;14.33;89.79;101967.34;5004844;28;20046;-67
2021/06/06 03:11:38;;;;;;;38.72;26.23;;;;;;;14.40;89.37;101966.41;4997952;28;20057;-67
2021/06/06 03:14:09;;;;;;;40.58;25.05;;;;;;;14.33;89.72;101965.63;5010519;28;20053;-65
2021/06/06 03:16:37;;;;;;;40.45;26.35;;;;;;;14.32;89.89;101963.03;5006911;28;20129;-67
2021/06/06 03:19:07;;;;;;;42.92;26.95;;;;;;;14.24;89.98;101963.13;5000792;28;20050;-66
2021/06/06 03:21:39;;;;;;;41.55;25.80;;;;;;;14.22;90.45;101965.78;5005124;28;20042;-66
2021/06/06 03:24:10;;;;;;;38.05;26.73;;;;;;;14.28;90.27;101959.56;5009902;28;20046;-67
2021/06/06 03:26:37;;;;;;;43.35;27.55;;;;;;;14.28;90.04;101960.44;4997985;28;20053;-66
2021/06/06 03:29:06;;;;;;;42.95;27.75;;;;;;;14.33;89.82;101954.25;5002264;28;20136;-66
2021/06/06 03:31:37;;;;;;;43.15;27.70;;;;;;;14.35;89.32;101957.72;5005047;28;20420;-67
2021/06/06 03:34:04;;;;;;;42.40;26.92;;;;;;;14.35;88.79;101956.00;5031812;22;20107;-62
2021/06/06 03:36:34;;;;;;;41.33;28.08;;;;;;;14.33;89.11;101956.88;5015053;28;20119;-61
2021/06/06 03:39:01;;;;;;;42.97;28.55;;;;;;;14.29;89.43;101963.91;5016732;28;20042;-60
2021/06/06 03:41:29;;;;;;;44.08;28.27;;;;;;;14.32;88.95;101955.19;5016341;28;20494;-60
2021/06/06 03:43:56;;;;;;;48.47;29.17;;;;;;;14.28;89.16;101954.34;5013501;28;20042;-61
2021/06/06 03:46:23;;;;;;;44.95;28.58;;;;;;;14.27;89.26;101947.41;5021995;28;20053;-60
2021/06/06 03:48:49;;;;;;;46.25;29.52;;;;;;;14.29;89.52;101953.44;5017254;28;20519;-61
2021/06/06 03:51:16;;;;;;;53.40;30.67;;;;;;;14.26;89.43;101959.59;5037699;28;20052;-61
2021/06/06 03:53:44;;;;;;;50.83;29.25;;;;;;;14.27;89.17;101958.72;5019313;28;20044;-61
2021/06/06 03:56:11;;;;;;;47.20;30.38;;;;;;;14.27;89.35;101956.09;5020144;28;20041;-62
2021/06/06 03:58:37;;;;;;;48.15;29.25;;;;;;;14.27;89.52;101956.09;5014379;28;20423;-60
2021/06/06 04:01:04;;;;;;;56.38;32.47;;;;;;;14.26;89.29;101959.59;5019362;28;20050;-61
2021/06/06 04:03:31;;;;;;;51.08;30.92;;;;;;;14.23;89.32;101953.56;5021258;28;20045;-60
2021/06/06 04:05:56;;;;;;;57.88;31.92;;;;;;;14.19;89.91;101952.75;5028609;28;20053;-60
2021/06/06 04:08:23;;;;;;;58.88;30.00;;;;;;;14.20;89.52;101964.06;5024377;28;20050;-60
2021/06/06 04:10:51;;;;;;;51.92;30.73;;;;;;;14.07;90.32;101960.75;5019225;28;20053;-60
2021/06/06 04:13:18;;;;;;;53.47;32.25;;;;;;;14.15;90.33;101951.03;5024938;28;20057;-61
2021/06/06 04:15:44;;;;;;;58.25;31.90;;;;;;;14.09;90.69;101952.00;5015106;28;20061;-61
2021/06/06 04:18:12;;;;;;;60.22;34.08;;;;;;;14.10;90.48;101952.88;5016608;28;20041;-59
2021/06/06 04:20:39;;;;;;;53.88;30.65;;;;;;;14.09;91.49;101953.75;5025380;28;20057;-61
2021/06/06 04:23:05;;;;;;;56.80;31.77;;;;;;;14.21;90.38;101953.59;5011808;28;20046;-61
2021/06/06 04:25:31;;;;;;;62.47;33.45;;;;;;;14.23;90.02;101951.78;5014663;28;20419;-62
2021/06/06 04:27:58;;;;;;;63.53;32.88;;;;;;;14.23;89.64;101946.56;5019757;28;20053;-60
2021/06/06 04:30:25;;;;;;;59.47;33.72;;;;;;;14.18;90.26;101951.00;5030586;28;20099;-61
2021/06/06 04:32:51;;;;;;;56.85;34.20;;;;;;;14.15;89.87;101959.78;5016235;28;20134;-61
2021/06/06 04:35:18;;;;;;;59.88;33.72;;;;;;;14.15;89.77;101951.94;5012969;28;20052;-60
2021/06/06 04:37:44;;;;;;;59.05;33.80;;;;;;;14.19;90.00;101954.47;5014912;28;21785;-60
2021/06/06 04:40:13;;;;;;;57.28;32.38;;;;;;;14.19;90.28;101963.22;5023080;28;20132;-61
2021/06/06 04:42:40;;;;;;;64.53;33.88;;;;;;;14.18;90.31;101963.22;5010558;28;20077;-60
2021/06/06 04:45:10;;;;;;;62.28;33.03;;;;;;;14.24;89.80;101961.38;5011447;28;20049;-60
2021/06/06 04:47:36;;;;;;;54.47;32.22;;;;;;;14.23;89.98;101964.88;5016503;28;20057;-61
2021/06/06 04:50:04;;;;;;;58.47;33.15;;;;;;;14.33;89.41;101964.72;5018536;28;20049;-61
2021/06/06 04:52:36;;;;;;;65.82;34.53;;;;;;;14.29;89.33;101972.66;5019111;28;20651;-61
2021/06/06 04:55:03;;;;;;;65.05;35.85;;;;;;;14.23;89.38;101967.50;5021886;28;20076;-61
2021/06/06 04:57:29;;;;;;;67.65;33.75;;;;;;;14.23;89.61;101964.03;5018231;28;20053;-61
2021/06/06 04:59:55;;;;;;;57.33;32.65;;;;;;;14.21;89.22;101958.81;5014009;28;20048;-59
2021/06/06 05:02:22;;;;;;;58.35;33.03;;;;;;;14.26;89.11;101964.00;5018683;28;20060;-59
2021/06/06 05:04:48;;;;;;;57.35;31.73;;;;;;;14.25;89.23;101968.34;5020097;28;20060;-59
2021/06/06 05:07:14;;;;;;;58.75;33.15;;;;;;;14.24;89.59;101971.00;5020507;28;20049;-60
2021/06/06 05:09:40;;;;;;;53.60;33.05;;;;;;;14.27;89.43;101969.19;5018008;28;20049;-61
2021/06/06 05:12:07;;;;;;;58.13;31.95;;;;;;;14.30;89.15;101963.03;5011519;28;20057;-59
2021/06/06 05:14:33;;;;;;;53.65;30.58;;;;;;;14.36;88.97;101964.69;5018925;28;20045;-61
2021/06/06 05:16:59;;;;;;;60.97;33.67;;;;;;;14.39;88.82;101969.91;5015853;28;20061;-61
2021/06/06 05:19:26;;;;;;;57.05;32.47;;;;;;;14.47;88.44;101968.03;5016280;28;20037;-61
2021/06/06 05:21:52;;;;;;;55.90;34.28;;;;;;;14.49;88.15;101963.63;5013510;28;20049;-61
2021/06/06 05:24:18;;;;;;;55.80;33.05;;;;;;;14.52;88.07;101971.44;5023770;28;20146;-61
2021/06/06 05:26:44;;;;;;;57.92;32.80;;;;;;;14.49;88.12;101966.25;5020248;28;20061;-61
2021/06/06 05:29:10;;;;;;;52.10;31.45;;;;;;;14.53;88.40;101962.66;5024149;28;20053;-60
2021/06/06 05:31:36;;;;;;;57.53;34.13;;;;;;;14.62;87.50;101957.28;5022195;28;20045;-59
2021/06/06 05:34:02;;;;;;;55.50;32.88;;;;;;;14.68;87.32;101968.59;5015837;28;20132;-60
2021/06/06 05:36:29;;;;;;;55.05;32.38;;;;;;;14.70;87.55;101964.19;5028130;28;20129;-61
2021/06/06 05:38:55;;;;;;;56.05;32.83;;;;;;;14.78;86.49;101975.41;5023707;28;20042;-60
2021/06/06 05:41:21;;;;;;;57.85;33.45;;;;;;;14.73;86.72;101979.84;5020079;28;20087;-59
2021/06/06 05:43:47;;;;;;;54.58;31.60;;;;;;;14.70;87.30;101974.69;5019761;28;20057;-60
2021/06/06 05:46:19;;;;;;;57.22;32.33;;;;;;;14.75;86.87;101973.72;5020461;28;20046;-62
2021/06/06 05:48:44;;;;;;;59.20;33.53;;;;;;;14.74;87.28;101985.06;5025299;28;20053;-61
2021/06/06 05:51:11;;;;;;;72.57;38.42;;;;;;;14.64;87.35;101974.72;5028256;28;20049;-60
2021/06/06 05:53:38;;;;;;;75.28;38.65;;;;;;;14.63;87.34;101984.34;5020963;28;20060;-62
2021/06/06 05:56:06;;;;;;;84.57;40.90;;;;;;;14.43;87.91;101982.03;5015587;28;20096;-63
2021/06/06 05:58:32;;;;;;;92.25;40.53;;;;;;;14.37;88.63;101990.00;5019990;28;20045;-59
2021/06/06 06:01:00;;;;;;;91.13;40.58;;;;;;;14.41;88.46;101982.06;5023291;28;20081;-61
2021/06/06 06:03:26;;;;;;;82.93;40.20;;;;;;;14.43;89.10;101982.91;5014288;28;20060;-60
2021/06/06 06:05:54;;;;;;;84.57;42.10;;;;;;;14.42;88.60;101980.34;5018504;28;20057;-61
2021/06/06 06:08:22;;;;;;;85.50;40.15;;;;;;;14.38;89.25;101989.94;5018753;28;20060;-58
2021/06/06 06:10:50;;;;;;;86.72;40.97;;;;;;;14.35;88.88;101989.13;5024548;28;20053;-60
2021/06/06 06:13:19;;;;;;;81.32;41.22;;;;;;;14.33;88.92;101983.94;5012840;28;20054;-62
2021/06/06 06:15:45;;;;;;;83.90;40.55;;;;;;;14.27;89.24;101984.88;5021437;28;20049;-61
2021/06/06 06:18:12;;;;;;;82.00;40.30;;;;;;;14.26;89.55;101991.00;5019947;28;20137;-62
2021/06/06 06:20:38;;;;;;;82.15;39.75;;;;;;;14.29;89.69;101995.31;5023148;28;20056;-62
2021/06/06 06:23:04;;;;;;;85.05;39.65;;;;;;;14.24;89.40;101997.16;5018561;28;20428;-61
2021/06/06 06:25:31;;;;;;;84.45;40.03;;;;;;;14.29;89.08;102001.44;5021424;28;20048;-61
2021/06/06 06:27:59;;;;;;;72.60;38.42;;;;;;;14.27;88.80;102005.84;5022395;28;20443;-62
2021/06/06 06:30:28;;;;;;;74.95;36.55;;;;;;;14.30;88.35;102008.41;5015691;28;20053;-60
2021/06/06 06:32:53;;;;;;;73.25;37.33;;;;;;;14.35;88.09;102005.72;5016942;28;20054;-60
2021/06/06 06:35:20;;;;;;;77.20;37.65;;;;;;;14.29;88.10;102005.78;5021276;28;20064;-60
2021/06/06 06:37:46;;;;;;;74.55;37.25;;;;;;;14.25;88.56;102009.38;5017508;28;20111;-60
2021/06/06 06:40:16;;;;;;;69.28;36.47;;;;;;;14.20;89.06;102003.31;5018552;28;20050;-61
2021/06/06 06:42:42;;;;;;;66.15;35.80;;;;;;;14.20;89.23;102005.94;5022104;28;20057;-61
2021/06/06 06:45:13;;;;;;;64.75;35.53;;;;;;;14.26;88.45;102001.47;5010466;28;20045;-60
2021/06/06 06:47:39;;;;;;;64.45;35.83;;;;;;;14.32;88.14;102008.38;5012453;28;20104;-61
2021/06/06 06:50:08;;;;;;;64.30;34.55;;;;;;;14.31;87.69;102004.03;5015695;28;20052;-54
2021/06/06 06:52:36;;;;;;;59.63;34.17;;;;;;;14.28;87.89;102010.19;5026004;28;20526;-61
2021/06/06 06:55:05;;;;;;;62.97;34.40;;;;;;;14.28;88.10;102009.28;5030305;28;20045;-60
2021/06/06 06:57:31;;;;;;;58.85;35.08;;;;;;;14.34;87.93;102001.38;5023355;28;20052;-60
2021/06/06 06:59:57;;;;;;;60.92;34.30;;;;;;;14.40;88.05;101997.81;5023048;28;20042;-61
2021/06/06 07:02:24;;;;;;;57.05;33.50;;;;;;;14.45;87.42;102006.44;5018666;28;20045;-60
2021/06/06 07:04:51;;;;;;;56.80;33.53;;;;;;;14.51;86.82;102010.72;5017120;28;20045;-59
2021/06/06 07:07:17;;;;;;;57.00;34.47;;;;;;;14.52;86.79;102008.09;5014963;28;20053;-61
2021/06/06 07:09:43;;;;;;;59.47;33.85;;;;;;;14.51;86.84;102006.38;5016737;28;20099;-61
2021/06/06 07:12:09;;;;;;;61.90;34.70;;;;;;;14.47;86.41;102007.28;5011161;28;20423;-62
2021/06/06 07:14:36;;;;;;;60.20;33.25;;;;;;;14.44;87.08;102010.81;5011338;28;20060;-59
2021/06/06 07:17:02;;;;;;;60.22;34.63;;;;;;;14.42;87.34;102009.13;5012545;28;20551;-58
2021/06/06 07:19:30;;;;;;;68.00;35.38;;;;;;;14.43;87.42;102018.69;5015453;28;20054;-59
2021/06/06 07:21:56;;;;;;;75.35;36.85;;;;;;;14.42;87.04;102022.22;5019052;28;20045;-61
2021/06/06 07:24:23;;;;;;;68.63;38.53;;;;;;;14.37;87.22;102017.03;5009547;28;20483;-59
2021/06/06 07:26:50;;;;;;;70.93;37.15;;;;;;;14.42;87.71;102019.59;5026660;28;20132;-62
2021/06/06 07:29:19;;;;;;;63.05;36.60;;;;;;;14.51;86.79;102016.84;5017039;28;20050;-60
2021/06/06 07:31:48;;;;;;;71.25;37.08;;;;;;;14.51;87.02;102024.69;5022958;28;20044;-60
2021/06/06 07:34:15;;;;;;;69.63;37.63;;;;;;;14.56;86.74;102016.78;5016483;28;20050;-60
2021/06/06 07:36:43;;;;;;;66.20;35.20;;;;;;;14.65;87.06;102023.59;5019436;28;20050;-61
2021/06/06 07:39:10;;;;;;;65.00;37.08;;;;;;;14.69;86.46;102017.47;5013957;28;20836;-61
2021/06/06 07:41:36;;;;;;;68.47;36.22;;;;;;;14.70;86.10;102017.44;5012922;28;20053;-62
2021/06/06 07:44:03;;;;;;;68.45;36.13;;;;;;;14.68;86.38;102018.34;5009208;28;20101;-60
2021/06/06 07:46:29;;;;;;;66.80;36.28;;;;;;;14.69;86.94;102014.84;5018728;28;20068;-60
2021/06/06 07:48:55;;;;;;;69.55;37.58;;;;;;;14.73;86.48;102020.00;5009056;28;20052;-59
2021/06/06 07:51:22;;;;;;;70.80;35.67;;;;;;;14.77;86.09;102012.97;5017453;28;20046;-60
2021/06/06 07:53:50;;;;;;;73.47;37.53;;;;;;;14.85;85.72;102016.31;5014391;28;20049;-60
2021/06/06 07:56:16;;;;;;;70.15;38.38;;;;;;;14.82;85.54;102011.16;5023648;28;20466;-59
2021/06/06 07:58:42;;;;;;;69.63;37.20;;;;;;;14.74;86.41;102019.13;5011958;28;20096;-60
2021/06/06 08:01:09;;;;;;;77.65;38.78;;;;;;;14.76;86.48;102016.47;5006738;28;20057;-60
2021/06/06 08:03:35;;;;;;;71.50;38.90;;;;;;;14.84;86.22;102022.44;5018953;28;20523;-59
2021/06/06 08:06:04;;;;;;;76.47;39.10;;;;;;;14.87;86.07;102025.03;5016424;28;20103;-59
2021/06/06 08:08:30;;;;;;;76.53;37.58;;;;;;;14.90;85.74;102014.50;5019664;28;20052;-60
2021/06/06 08:11:00;;;;;;;73.00;37.67;;;;;;;14.91;85.64;102026.72;5015817;28;20045;-59
2021/06/06 08:13:26;;;;;;;68.38;36.22;;;;;;;14.92;85.55;102017.94;5023361;28;20096;-59
2021/06/06 08:15:52;;;;;;;73.72;36.35;;;;;;;14.95;85.29;102013.53;5018984;28;21806;-60
2021/06/06 08:18:20;;;;;;;72.03;38.38;;;;;;;14.93;85.61;102018.81;5015643;28;20049;-61
2021/06/06 08:20:50;;;;;;;75.22;38.78;;;;;;;14.91;85.45;102021.47;5020964;28;20719;-58
2021/06/06 08:23:17;;;;;;;70.90;38.22;;;;;;;14.99;85.15;102017.84;5020403;28;20060;-58
2021/06/06 08:25:44;;;;;;;80.18;39.42;;;;;;;15.00;85.05;102019.59;5019570;28;20423;-59
2021/06/06 08:28:13;;;;;;;68.78;38.15;;;;;;;15.03;85.03;102024.75;5017271;28;20049;-61
2021/06/06 08:30:42;;;;;;;69.20;35.92;;;;;;;15.13;84.93;102025.47;5021585;28;20053;-60
2021/06/06 08:33:08;;;;;;;73.53;38.13;;;;;;;15.17;85.23;102022.75;5024881;28;20046;-62
2021/06/06 08:35:35;;;;;;;67.05;35.65;;;;;;;15.24;84.10;102019.13;5015076;28;20053;-61
2021/06/06 08:38:01;;;;;;;66.22;34.40;;;;;;;15.23;84.26;102019.16;5018813;28;20052;-61
2021/06/06 08:40:32;;;;;;;72.32;35.03;;;;;;;15.31;83.93;102004.16;5023440;28;20050;-59
2021/06/06 08:42:59;;;;;;;67.00;34.75;;;;;;;15.43;83.74;102012.69;5022738;28;20056;-60
2021/06/06 08:45:34;;;;;;;65.45;34.30;;;;;;;15.51;83.42;102022.16;5017257;28;20049;-60
2021/06/06 08:48:02;;;;;;;60.00;33.63;;;;;;;15.53;82.91;102016.88;5024098;28;20057;-60
2021/06/06 08:50:31;;;;;;;57.53;32.28;;;;;;;15.54;82.89;102016.81;5004809;28;20050;-60
2021/06/06 08:53:06;;;;;;;58.03;33.75;;;;;;;15.59;82.95;102023.75;5012146;28;20050;-56
2021/06/06 08:55:41;;;;;;;60.88;31.58;;;;;;;15.63;82.65;102018.41;5015661;28;20044;-59
2021/06/06 08:58:19;;;;;;;56.00;30.60;;;;;;;15.72;82.56;102019.13;5012659;28;20053;-61
2021/06/06 09:00:53;;;;;;;54.78;31.30;;;;;;;15.67;83.07;102021.84;5009441;28;20415;-60
2021/06/06 09:03:22;;;;;;;55.22;29.65;;;;;;;15.59;82.77;102026.38;5016436;28;20049;-61
2021/06/06 09:05:59;;;;;;;59.22;29.83;;;;;;;15.57;83.15;102030.78;5011793;28;20045;-60
2021/06/06 09:08:27;;;;;;;54.67;29.33;;;;;;;15.57;83.85;102033.41;5014505;28;20041;-61
2021/06/06 09:10:58;;;;;;;55.05;28.70;;;;;;;15.63;83.00;102035.91;5012011;28;20111;-62
2021/06/06 09:13:27;;;;;;;53.30;29.13;;;;;;;15.62;83.00;102037.66;5018670;28;20574;-61
2021/06/06 09:16:02;;;;;;;48.85;27.40;;;;;;;15.43;83.80;102037.13;5016178;28;20132;-61
2021/06/06 09:18:29;;;;;;;48.78;26.95;;;;;;;15.51;83.48;102048.38;5027452;28;20052;-61
2021/06/06 09:21:08;;;;;;;51.88;27.90;;;;;;;15.57;83.22;102046.50;5011448;28;20111;-61
2021/06/06 09:23:34;;;;;;;54.83;28.67;;;;;;;15.52;83.72;102042.22;5020015;28;20056;-60
2021/06/06 09:26:05;;;;;;;49.72;25.95;;;;;;;15.65;83.17;102044.59;5015835;28;20514;-61
2021/06/06 09:28:33;;;;;;;50.88;27.48;;;;;;;15.73;83.51;102052.31;5019359;28;20080;-60
2021/06/06 09:31:04;;;;;;;49.80;26.42;;;;;;;15.85;82.43;102052.97;5014161;28;20045;-61
2021/06/06 09:33:35;;;;;;;45.20;24.73;;;;;;;16.11;81.99;102053.31;5016570;28;20422;-59
2021/06/06 09:36:03;;;;;;;46.83;25.00;;;;;;;16.38;80.04;102045.72;5018605;28;20050;-59
2021/06/06 09:38:36;;;;;;;43.47;25.75;;;;;;;16.48;80.13;102050.75;5014648;28;20576;-61
2021/06/06 09:41:13;;;;;;;40.45;23.25;;;;;;;16.63;79.28;102052.16;5011137;28;20041;-61
2021/06/06 09:43:40;;;;;;;45.15;24.02;;;;;;;16.52;79.04;102050.69;5016404;28;20455;-60
2021/06/06 09:46:14;;;;;;;46.42;24.13;;;;;;;16.39;80.41;102053.59;5008704;28;20057;-60
2021/06/06 09:48:42;;;;;;;43.35;24.00;;;;;;;16.38;80.26;102045.72;5013756;28;20045;-61
2021/06/06 09:51:15;;;;;;;41.22;23.88;;;;;;;16.34;80.09;102047.56;5014084;28;20049;-62
2021/06/06 09:53:43;;;;;;;40.63;22.35;;;;;;;16.32;80.32;102046.72;5012028;28;20543;-61
2021/06/06 09:56:15;;;;;;;41.58;24.77;;;;;;;16.31;79.96;102052.91;5016735;28;20054;-62
2021/06/06 09:58:41;;;;;;;41.50;24.42;;;;;;;16.31;80.10;102045.88;5009805;28;20058;-61
2021/06/06 10:01:23;;;;;;;39.60;23.98;;;;;;;16.44;80.05;102049.09;5013321;28;20061;-61
2021/06/06 10:03:53;;;;;;;44.80;24.70;;;;;;;16.50;79.62;102050.72;5012481;28;20058;-61
2021/06/06 10:06:27;;;;;;;41.17;22.80;;;;;;;16.54;79.85;102057.63;5004634;28;20046;-62
2021/06/06 10:08:59;;;;;;;37.55;23.13;;;;;;;16.71;78.91;102049.38;5010345;28;20531;-59
2021/06/06 10:11:34;;;;;;;39.97;22.35;;;;;;;16.71;78.71;102059.88;5012116;28;20060;-61
2021/06/06 10:14:02;;;;;;;45.30;24.38;;;;;;;16.64;79.26;102058.28;5015408;28;20057;-62
2021/06/06 10:16:34;;;;;;;38.63;22.85;;;;;;;16.68;79.22;102053.81;5012396;28;20096;-62
2021/06/06 10:19:05;;;;;;;37.13;23.23;;;;;;;16.73;78.96;102054.56;5014685;28;20144;-60
2021/06/06 10:21:35;;;;;;;41.10;23.52;;;;;;;16.79;79.12;102051.78;5019394;28;20088;-61
2021/06/06 10:24:08;;;;;;;42.10;24.27;;;;;;;16.72;79.29;102061.56;5027588;28;20045;-60
2021/06/06 10:26:38;;;;;;;38.22;23.90;;;;;;;16.50;79.46;102060.38;5021265;28;20638;-61
2021/06/06 10:29:08;;;;;;;38.67;23.40;;;;;;;16.52;79.33;102058.59;5023478;28;20111;-58
2021/06/06 10:31:39;;;;;;;41.60;23.70;;;;;;;16.66;79.34;102061.72;5014750;28;20115;-62
2021/06/06 10:34:12;;;;;;;46.55;25.10;;;;;;;16.78;78.72;102061.44;5019413;28;20053;-59
2021/06/06 10:36:40;;;;;;;39.17;23.67;;;;;;;16.94;78.87;102063.72;5018235;28;20095;-61
2021/06/06 10:39:08;;;;;;;44.80;24.13;;;;;;;16.99;78.52;102069.75;5013395;28;20176;-60
2021/06/06 10:41:37;;;;;;;39.55;22.92;;;;;;;17.04;78.02;102067.00;5019589;28;20520;-61
2021/06/06 10:44:11;;;;;;;41.75;23.05;;;;;;;17.08;78.11;102071.25;5019055;28;20419;-59
2021/06/06 10:46:45;;;;;;;42.33;24.77;;;;;;;17.14;77.56;102067.63;5015485;28;20058;-60
2021/06/06 10:49:18;;;;;;;42.45;23.55;;;;;;;17.17;77.73;102068.41;5022932;28;20049;-57
2021/06/06 10:51:52;;;;;;;34.67;23.02;;;;;;;17.23;77.21;102072.63;5016062;28;20053;-59
2021/06/06 10:54:35;;;;;;;41.50;24.35;;;;;;;17.21;76.73;102074.47;5011210;28;20503;-60
2021/06/06 10:57:05;;;;;;;36.22;23.02;;;;;;;17.20;76.79;102070.09;5019927;28;22108;-59
2021/06/06 10:59:37;;;;;;;34.58;22.13;;;;;;;17.20;76.51;102070.09;5024168;28;20406;-59
2021/06/06 11:02:09;;;;;;;38.22;23.17;;;;;;;17.32;77.14;102064.50;5018778;28;20058;-62
2021/06/06 11:04:50;;;;;;;33.92;21.92;;;;;;;17.42;75.54;102069.53;5015936;28;20050;-61
2021/06/06 11:07:42;;;;;;;31.85;21.33;;;;;;;17.37;75.65;102062.63;5018529;28;20046;-65
2021/06/06 11:10:30;;;;;;;33.10;22.00;;;;;;;17.32;76.16;102061.88;5017765;28;20067;-60
2021/06/06 11:13:10;;;;;;;37.33;22.85;;;;;;;17.35;76.68;102064.44;5025117;28;20049;-61
2021/06/06 11:15:38;;;;;;;33.25;23.42;;;;;;;17.40;76.08;102066.94;5021762;28;20050;-61
2021/06/06 11:18:15;;;;;;;31.85;22.33;;;;;;;17.40;76.13;102059.03;5014187;28;20054;-66